Home   Weather   Sweden   Gällivare   Past weeks
Flag for Sweden

Past Weather in Gällivare, Sweden — Yesterday and Last 2 Weeks

Currently: 55 °F. Cool. (Weather station: Gallivare, Sweden). See more current weather

Past Weather in Gällivare — Graph

°F

Gällivare Temperature Yesterday

Maximum temperature yesterday: 68 °F (at 12:50 pm)
Minimum temperature yesterday: 48 °F (at 3:20 am)
Average temperature yesterday: 59 °F

High & Low Weather Summary for the Past Weeks

 TemperatureHumidityPressure
High70 °F (Jun 5, 3:20 pm)100% (Jun 7, 2:20 am)29.98 "Hg (Jun 7, 2:20 am)
Low39 °F (Jun 5, 1:50 am)21% (Jun 4, 3:50 pm)29.33 "Hg (Jun 10, 6:50 am)
Average55 °F66%29.69 "Hg
* Reported Jun 2 6:20 am — Jun 17 6:20 am, Gällivare. Weather by CustomWeather, © 2024

Note: Actual official high and low records may vary slightly from our data, if they occured in-between our weather recording intervals... More about our weather records

Gällivare Weather History for the Previous 24 Hours

Scroll right to see more
 ConditionsComfort  
Time TempWeatherWind HumidityBarometerVisibility
6:20 am
Mon, Jun 17
54 °FBroken clouds.2 mph94%29.98 "HgN/A
5:50 am54 °FBroken clouds.3 mph94%29.98 "HgN/A
5:20 am54 °FBroken clouds.5 mph94%29.95 "HgN/A
4:50 am52 °FLow clouds.3 mph100%29.95 "HgN/A
4:20 am52 °FCool.3 mph100%29.95 "HgN/A
3:50 am52 °FFog.3 mph100%29.95 "HgN/A
3:20 am52 °FFog.3 mph94%29.95 "Hg3 mi
2:50 am52 °FRain. Cloudy.3 mph94%29.95 "Hg4 mi
2:20 am52 °FDrizzle. Cloudy.5 mph94%29.95 "HgN/A
1:50 am52 °FDrizzle. Cloudy.6 mph94%29.95 "Hg4 mi
1:20 am52 °FLight rain. Cloudy.5 mph94%29.95 "HgN/A
12:50 am52 °FRain. Cloudy.5 mph94%29.95 "HgN/A
12:20 am54 °FLight rain. Cloudy.5 mph88%29.95 "HgN/A
11:50 pm
Sun, Jun 16
54 °FLight rain. Cloudy.5 mph88%29.95 "HgN/A
11:20 pm54 °FCool.7 mph88%29.95 "HgN/A
10:50 pm57 °FCool.7 mph67%29.95 "HgN/A
10:20 pm57 °FCool.8 mph63%29.95 "HgN/A
9:50 pm59 °FRefreshingly cool.9 mph59%29.92 "HgN/A
9:20 pm61 °FCool.10 mph63%29.92 "HgN/A
8:50 pm61 °FCool.10 mph63%29.92 "HgN/A
8:20 pm64 °FMild.13 mph52%29.89 "HgN/A
7:50 pm64 °FMild.13 mph49%29.89 "HgN/A
7:20 pm64 °FMild.12 mph49%29.89 "HgN/A
6:20 pm66 °FPassing clouds.12 mph40%29.89 "HgN/A
5:50 pm66 °FSunny.12 mph40%29.89 "Hg10 mi
5:20 pm66 °FSunny.15 mph40%29.89 "Hg10 mi
4:50 pm66 °FSunny.10 mph37%29.89 "Hg10 mi
4:20 pm68 °FPassing clouds.13 mph38%29.89 "HgN/A
3:50 pm66 °FSunny.10 mph40%29.89 "Hg10 mi
3:20 pm68 °FSunny.12 mph33%29.89 "Hg10 mi
2:50 pm66 °FPassing clouds.10 mph37%29.89 "HgN/A
2:20 pm68 °FPassing clouds.13 mph35%29.89 "HgN/A
1:50 pm66 °FMild.10 mph37%29.89 "HgN/A
1:20 pm66 °FMild.9 mph40%29.89 "HgN/A
12:50 pm68 °FMild.13 mph38%29.86 "HgN/A
12:20 pm66 °FMild.10 mph35%29.86 "HgN/A
11:20 am63 °FMild.6 mph49%29.89 "HgN/A
10:50 am64 °FMild.6 mph49%29.89 "HgN/A
10:20 am63 °FMild.6 mph59%29.89 "HgN/A
9:50 am61 °FCool.No wind63%29.89 "HgN/A
9:20 am59 °FCool.3 mph72%29.89 "HgN/A
8:20 am57 °FCool.No wind82%29.89 "HgN/A
7:20 am52 °FCool.3 mph94%29.89 "HgN/A
Weather by CustomWeather, © 2024

See weather overview